EST,Max TemperatureF,Mean TemperatureF,Min TemperatureF,Max Dew PointF,MeanDew PointF,Min DewpointF,Max Humidity, Mean Humidity, Min Humidity, Max Sea Level PressureIn, Mean Sea Level PressureIn, Min Sea Level PressureIn, Max VisibilityMiles, Mean VisibilityMiles, Min VisibilityMiles, Max Wind SpeedMPH, Mean Wind SpeedMPH, Max Gust SpeedMPH,PrecipitationIn, CloudCover, Events, WindDirDegrees
2013-11-1,65,58,50,57,50,39,100,77,45,29.59,29.28,29.13,15,12,5,45,21,62,0.63,7,Rain,203
2013-11-2,46,40,35,43,36,18,100,80,48,29.98,29.72,29.61,15,11,2,20,7,25,0.08,8,Rain,328
2013-11-3,40,32,24,18,15,12,74,49,26,30.51,30.27,30.00,15,15,15,15,8,21,0.00,1,,341
2013-11-4,37,28,20,19,16,12,86,54,25,30.73,30.67,30.56,15,15,15,9,4,,0.00,2,,36
2013-11-5,47,40,32,32,25,19,75,55,24,30.64,30.51,30.38,15,15,15,13,8,,0.00,5,,142
2013-11-6,55,46,37,46,39,32,82,67,44,30.37,30.09,29.72,15,14,10,22,8,29,0.20,7,Rain,146
2013-11-7,52,44,35,54,37,23,94,70,39,29.87,29.77,29.62,15,15,15,23,15,30,0.08,8,Rain,249
2013-11-8,39,36,34,28,26,23,75,63,46,30.08,29.92,29.83,15,15,15,23,14,31,0.00,6,,264
2013-11-9,38,34,31,30,25,19,81,64,40,30.18,30.09,29.92,15,14,6,20,13,26,0.00,7,Snow,222
2013-11-10,41,38,34,39,37,30,100,92,75,29.89,29.73,29.67,15,7,0,18,10,26,0.28,8,Rain-Snow,251
2013-11-11,38,35,30,36,30,19,93,79,59,30.08,29.92,29.78,15,10,2,24,17,34,0.20,8,Rain-Snow,244
2013-11-12,31,28,23,21,16,12,74,62,46,30.27,30.12,29.97,15,15,15,23,17,32,0.00,6,Snow,272
2013-11-13,33,26,18,27,16,7,80,64,37,30.33,30.22,29.96,15,15,15,21,14,29,0.00,5,Snow,238
2013-11-14,44,38,31,34,29,24,81,65,46,29.99,29.96,29.91,15,15,15,23,16,32,0.00,6,,221
2013-11-15,50,44,37,34,30,27,70,55,37,30.13,30.04,29.97,15,15,15,21,10,28,0.00,6,,213
2013-11-16,53,44,35,34,30,25,81,57,28,30.26,30.20,30.13,15,15,15,9,5,,0.00,4,,166
2013-11-17,55,46,38,52,43,30,94,79,61,30.20,29.94,29.56,15,13,4,29,9,37,0.16,6,Rain,131
2013-11-18,52,44,35,54,38,27,94,69,44,29.62,29.45,29.29,15,14,7,32,25,46,0.35,7,Rain-Snow,223
2013-11-19,34,31,28,23,17,14,64,53,33,30.39,30.08,29.62,15,15,14,24,19,36,0.00,6,Rain-Snow,287
2013-11-20,33,27,21,19,17,14,80,64,35,30.66,30.59,30.42,15,15,15,7,5,,0.00,1,,261
2013-11-21,38,29,20,28,23,18,86,72,52,30.64,30.50,30.34,15,15,14,9,5,,0.00,5,,72
2013-11-22,41,37,33,39,34,27,100,87,64,30.33,30.03,29.80,15,11,2,22,5,34,0.20,8,Rain,130
2013-11-23,30,26,21,30,18,7,81,67,49,30.00,29.90,29.83,15,15,12,23,17,30,0.00,6,Snow,286
2013-11-24,21,16,12,9,2,-4,63,49,27,30.27,30.07,29.91,15,15,15,28,20,40,0.00,6,Snow,282
2013-11-25,32,20,8,16,7,0,79,59,23,30.39,30.25,30.08,15,15,15,18,13,25,0.02,6,Snow,202
2013-11-26,36,32,27,32,25,18,100,71,47,30.18,30.12,29.99,15,11,2,24,15,31,0.12,8,Snow,178
2013-11-27,34,31,26,34,31,21,100,93,80,29.95,29.58,29.41,15,4,1,23,11,28,0.67,8,Rain-Snow,321
2013-11-28,21,18,15,19,11,3,86,67,45,30.43,30.02,29.54,15,12,1,24,18,34,0.02,6,Snow,264
2013-11-29,22,14,7,11,8,5,92,74,52,30.79,30.63,30.44,15,15,15,10,6,,0.00,1,,256
2013-11-30,23,14,4,16,11,3,93,84,54,30.81,30.63,30.30,15,11,0,12,5,,0.00,7,Fog-Snow,37